地図

経路データ

SID SEASON NUMBER BASIN SUBBASIN NAME ISO_TIME NATURE LAT LON WMO_WIND WMO_PRES WMO_AGENCY TRACK_TYPE DIST2LAND LANDFALL IFLAG USA_AGENCY USA_ATCF_ID USA_LAT USA_LON USA_RECORD USA_STATUS USA_WIND USA_PRES USA_SSHS USA_R34_NE USA_R34_SE USA_R34_SW USA_R34_NW USA_R50_NE USA_R50_SE USA_R50_SW USA_R50_NW USA_R64_NE USA_R64_SE USA_R64_SW USA_R64_NW USA_POCI USA_ROCI USA_RMW USA_EYE TOKYO_LAT TOKYO_LON TOKYO_GRADE TOKYO_WIND TOKYO_PRES TOKYO_R50_DIR TOKYO_R50_LONG TOKYO_R50_SHORT TOKYO_R30_DIR TOKYO_R30_LONG TOKYO_R30_SHORT TOKYO_LAND CMA_LAT CMA_LON CMA_CAT CMA_WIND CMA_PRES HKO_LAT HKO_LON HKO_CAT HKO_WIND HKO_PRES NEWDELHI_LAT NEWDELHI_LON NEWDELHI_GRADE NEWDELHI_WIND NEWDELHI_PRES NEWDELHI_CI NEWDELHI_DP NEWDELHI_POCI REUNION_LAT REUNION_LON REUNION_TYPE REUNION_WIND REUNION_PRES REUNION_TNUM REUNION_CI REUNION_RMW REUNION_R34_NE REUNION_R34_SE REUNION_R34_SW REUNION_R34_NW REUNION_R50_NE REUNION_R50_SE REUNION_R50_SW REUNION_R50_NW REUNION_R64_NE REUNION_R64_SE REUNION_R64_SW REUNION_R64_NW BOM_LAT BOM_LON BOM_TYPE BOM_WIND BOM_PRES BOM_TNUM BOM_CI BOM_RMW BOM_R34_NE BOM_R34_SE BOM_R34_SW BOM_R34_NW BOM_R50_NE BOM_R50_SE BOM_R50_SW BOM_R50_NW BOM_R64_NE BOM_R64_SE BOM_R64_SW BOM_R64_NW BOM_ROCI BOM_POCI BOM_EYE BOM_POS_METHOD BOM_PRES_METHOD NADI_LAT NADI_LON NADI_CAT NADI_WIND NADI_PRES WELLINGTON_LAT WELLINGTON_LON WELLINGTON_WIND WELLINGTON_PRES DS824_LAT DS824_LON DS824_STAGE DS824_WIND DS824_PRES TD9636_LAT TD9636_LON TD9636_STAGE TD9636_WIND TD9636_PRES TD9635_LAT TD9635_LON TD9635_WIND TD9635_PRES TD9635_ROCI NEUMANN_LAT NEUMANN_LON NEUMANN_CLASS NEUMANN_WIND NEUMANN_PRES MLC_LAT MLC_LON MLC_CLASS MLC_WIND MLC_PRES USA_GUST BOM_GUST BOM_GUST_PER REUNION_GUST REUNION_GUST_PER USA_SEAHGT USA_SEARAD_NE USA_SEARAD_SE USA_SEARAD_SW USA_SEARAD_NW STORM_SPEED STORM_DIR
1863032S13061 1863 4 SI MM NOT_NAMED 1863-02-01 06:00:00 NR -12.7000 61.1000 reunion main 904 889 _____O________ -1 -12.7000 61.1000 99 9.90000 3 236
1863032S13061 1863 4 SI MM NOT_NAMED 1863-02-01 09:00:00 NR -12.7960 60.9532 main 889 870 _____P________ -1 -12.7960 60.9532 99 3 236
1863032S13061 1863 4 SI MM NOT_NAMED 1863-02-01 12:00:00 NR -12.8922 60.8049 main 870 856 _____P________ -1 -12.8922 60.8049 99 4 237
1863032S13061 1863 4 SI MM NOT_NAMED 1863-02-01 15:00:00 NR -12.9893 60.6535 main 856 838 _____P________ -1 -12.9893 60.6535 99 4 237
1863032S13061 1863 4 SI MM NOT_NAMED 1863-02-01 18:00:00 NR -13.0875 60.4977 main 838 820 _____P________ -1 -13.0875 60.4977 99 4 237
1863032S13061 1863 4 SI MM NOT_NAMED 1863-02-01 21:00:00 NR -13.1873 60.3359 main 820 806 _____P________ -1 -13.1873 60.3359 99 4 238
1863032S13061 1863 4 SI MM NOT_NAMED 1863-02-02 00:00:00 NR -13.2890 60.1667 main 806 788 _____P________ -1 -13.2890 60.1667 99 4 239
1863032S13061 1863 4 SI MM NOT_NAMED 1863-02-02 03:00:00 NR -13.3931 59.9885 main 788 771 _____P________ -1 -13.3931 59.9885 99 4 239
1863032S13061 1863 4 SI MM NOT_NAMED 1863-02-02 06:00:00 NR -13.5000 59.8000 reunion main 771 754 _____O________ -1 -13.5000 59.8000 99 9.90000 4 240
1863032S13061 1863 4 SI MM NOT_NAMED 1863-02-02 09:00:00 NR -13.6100 59.6003 main 754 738 _____P________ -1 -13.6100 59.6003 99 5 241
1863032S13061 1863 4 SI MM NOT_NAMED 1863-02-02 12:00:00 NR -13.7236 59.3915 main 738 722 _____P________ -1 -13.7236 59.3915 99 5 241
1863032S13061 1863 4 SI MM NOT_NAMED 1863-02-02 15:00:00 NR -13.8410 59.1762 main 722 696 _____P________ -1 -13.8410 59.1762 99 5 241
1863032S13061 1863 4 SI MM NOT_NAMED 1863-02-02 18:00:00 NR -13.9627 58.9573 main 696 679 _____P________ -1 -13.9627 58.9573 99 5 240
1863032S13061 1863 4 SI MM NOT_NAMED 1863-02-02 21:00:00 NR -14.0891 58.7375 main 679 665 _____P________ -1 -14.0891 58.7375 99 5 239
1863032S13061 1863 4 SI MM NOT_NAMED 1863-02-03 00:00:00 NR -14.2205 58.5195 main 665 652 _____P________ -1 -14.2205 58.5195 99 5 237
1863032S13061 1863 4 SI MM NOT_NAMED 1863-02-03 03:00:00 NR -14.3573 58.3061 main 641 628 _____P________ -1 -14.3573 58.3061 99 5 236
1863032S13061 1863 4 SI MM NOT_NAMED 1863-02-03 06:00:00 NR -14.5000 58.1000 reunion main 628 615 _____O________ -1 -14.5000 58.1000 99 9.90000 5 233
1863032S13061 1863 4 SI MM NOT_NAMED 1863-02-03 09:00:00 NR -14.6484 57.9090 main 615 593 _____P________ -1 -14.6484 57.9090 99 5 230
1863032S13061 1863 4 SI MM NOT_NAMED 1863-02-03 12:00:00 NR -14.8031 57.7242 main 593 570 _____P________ -1 -14.8031 57.7242 99 5 228
1863032S13061 1863 4 SI MM NOT_NAMED 1863-02-03 15:00:00 NR -14.9631 57.5447 main 570 559 _____P________ -1 -14.9631 57.5447 99 5 227
1863032S13061 1863 4 SI MM NOT_NAMED 1863-02-03 18:00:00 NR -15.1271 57.3697 main 559 538 _____P________ -1 -15.1271 57.3697 99 5 225
1863032S13061 1863 4 SI MM NOT_NAMED 1863-02-03 21:00:00 NR -15.2940 57.1985 main 538 517 _____P________ -1 -15.2940 57.1985 99 5 224
1863032S13061 1863 4 SI MM NOT_NAMED 1863-02-04 00:00:00 NR -15.4626 57.0304 main 517 507 _____P________ -1 -15.4626 57.0304 99 5 224
1863032S13061 1863 4 SI MM NOT_NAMED 1863-02-04 03:00:00 NR -15.6316 56.8645 main 507 488 _____P________ -1 -15.6316 56.8645 99 5 223
1863032S13061 1863 4 SI MM NOT_NAMED 1863-02-04 06:00:00 NR -15.8000 56.7000 reunion main 488 470 _____O________ -1 -15.8000 56.7000 99 9.90000 5 225
1863032S13061 1863 4 SI MM NOT_NAMED 1863-02-04 09:00:00 NR -15.9663 56.5214 main 470 462 _____P________ -1 -15.9663 56.5214 99 5 226
1863032S13061 1863 4 SI MM NOT_NAMED 1863-02-04 12:00:00 NR -16.1331 56.3435 main 465 446 _____P________ -1 -16.1331 56.3435 99 5 226
1863032S13061 1863 4 SI MM NOT_NAMED 1863-02-04 15:00:00 NR -16.2996 56.1682 main 446 432 _____P________ -1 -16.2996 56.1682 99 5 225
1863032S13061 1863 4 SI MM NOT_NAMED 1863-02-04 18:00:00 NR -16.4651 55.9976 main 432 426 _____P________ -1 -16.4651 55.9976 99 5 224
1863032S13061 1863 4 SI MM NOT_NAMED 1863-02-04 21:00:00 NR -16.6286 55.8335 main 430 415 _____P________ -1 -16.6286 55.8335 99 4 223
1863032S13061 1863 4 SI MM NOT_NAMED 1863-02-05 00:00:00 NR -16.7894 55.6779 main 415 410 _____P________ -1 -16.7894 55.6779 99 4 222
1863032S13061 1863 4 SI MM NOT_NAMED 1863-02-05 03:00:00 NR -16.9468 55.5327 main 415 402 _____P________ -1 -16.9468 55.5327 99 4 221
1863032S13061 1863 4 SI MM NOT_NAMED 1863-02-05 06:00:00 NR -17.1000 55.4000 reunion main 402 392 _____O________ -1 -17.1000 55.4000 99 9.90000 4 219
1863032S13061 1863 4 SI MM NOT_NAMED 1863-02-05 09:00:00 NR -17.2484 55.2810 main 398 387 _____P________ -1 -17.2484 55.2810 99 4 217
1863032S13061 1863 4 SI MM NOT_NAMED 1863-02-05 12:00:00 NR -17.3924 55.1746 main 387 385 _____P________ -1 -17.3924 55.1746 99 3 214
1863032S13061 1863 4 SI MM NOT_NAMED 1863-02-05 15:00:00 NR -17.5327 55.0791 main 385 370 _____P________ -1 -17.5327 55.0791 99 3 212
1863032S13061 1863 4 SI MM NOT_NAMED 1863-02-05 18:00:00 NR -17.6699 54.9925 main 370 360 _____P________ -1 -17.6699 54.9925 99 3 210
1863032S13061 1863 4 SI MM NOT_NAMED 1863-02-05 21:00:00 NR -17.8046 54.9131 main 360 349 _____P________ -1 -17.8046 54.9131 99 3 209
1863032S13061 1863 4 SI MM NOT_NAMED 1863-02-06 00:00:00 NR -17.9374 54.8391 main 350 328 _____P________ -1 -17.9374 54.8391 99 3 208
1863032S13061 1863 4 SI MM NOT_NAMED 1863-02-06 03:00:00 NR -18.0690 54.7687 main 328 319 _____P________ -1 -18.0690 54.7687 99 3 207
1863032S13061 1863 4 SI MM NOT_NAMED 1863-02-06 06:00:00 NR -18.2000 54.7000 reunion main 319 _____O________ -1 -18.2000 54.7000 99 9.90000 3 208

IBTrACS Databaseについて

本データベースは、米国NOAAが公開する1842年以降の世界の熱帯低気圧のベストトラックデータアーカイブInternational Best Track Archive for Climate Stewardship (IBTrACS)を、ウェブで閲覧しやすい形式に変換したものです。

最終更新日:2021-10-08